Time;durP1;ratioP1;P1;durP2;ratioP2;P2;SDS_P1;SDS_P2;PMS_P1;PMS_P2;Temp;Humidity;BMP_temperature;BMP_pressure;BME280_temperature;BME280_humidity;BME280_pressure;Samples;Min_cycle;Max_cycle;Signal;HPM_P1;HPM_P2
2022/09/30 00:01:32;;;;;;;19.90;14.10;;;4.50;99.90;;;;;;6278040;22;20427;-65
2022/09/30 00:04:03;;;;;;;12.90;11.07;;;4.60;99.90;;;;;;6277746;22;20436;-65
2022/09/30 00:06:33;;;;;;;14.07;10.87;;;4.60;99.90;;;;;;6278360;22;20436;-65
2022/09/30 00:09:02;;;;;;;14.10;10.83;;;4.50;99.90;;;;;;6278915;22;20575;-65
2022/09/30 00:11:32;;;;;;;11.07;9.97;;;4.40;99.90;;;;;;6278283;22;20391;-65
2022/09/30 00:14:01;;;;;;;11.00;9.80;;;4.40;99.90;;;;;;6277965;22;20392;-65
2022/09/30 00:16:30;;;;;;;10.70;8.80;;;4.40;99.90;;;;;;6275077;22;20894;-65
2022/09/30 00:18:59;;;;;;;10.83;8.90;;;4.40;99.90;;;;;;6278194;22;20416;-65
2022/09/30 00:21:27;;;;;;;11.80;8.33;;;4.30;99.90;;;;;;6278411;22;20396;-65
2022/09/30 00:23:55;;;;;;;10.07;7.83;;;4.40;99.90;;;;;;6279838;22;20421;-65
2022/09/30 00:26:23;;;;;;;10.90;8.20;;;4.30;99.90;;;;;;6308838;22;20412;-64
2022/09/30 00:28:58;;;;;;;8.60;7.73;;;4.30;99.90;;;;;;6309488;22;20713;-65
2022/09/30 00:31:27;;;;;;;9.90;8.87;;;4.20;99.90;;;;;;6309767;22;20514;-64
2022/09/30 00:34:06;;;;;;;12.77;7.13;;;4.20;99.90;;;;;;6309976;22;20393;-64
2022/09/30 00:36:34;;;;;;;8.33;7.60;;;4.20;99.90;;;;;;6309310;22;20760;-65
2022/09/30 00:39:07;;;;;;;16.77;8.90;;;4.20;99.90;;;;;;6309012;22;20420;-64
2022/09/30 00:41:35;;;;;;;8.50;7.63;;;4.20;99.90;;;;;;6308875;22;20838;-64
2022/09/30 00:44:44;;;;;;;8.73;7.83;;;4.20;99.90;;;;;;6309984;22;20482;-64
2022/09/30 00:47:38;;;;;;;11.80;7.90;;;4.20;99.90;;;;;;6253976;22;20482;-64
2022/09/30 00:50:17;;;;;;;9.37;8.27;;;4.10;99.90;;;;;;6309019;22;20479;-64
2022/09/30 00:52:47;;;;;;;10.73;8.43;;;4.10;99.90;;;;;;6309266;22;20397;-64
2022/09/30 00:55:40;;;;;;;9.80;8.23;;;4.10;99.90;;;;;;6309243;22;20738;-64
2022/09/30 00:58:14;;;;;;;9.50;8.40;;;4.00;99.90;;;;;;6284329;22;20690;-64
2022/09/30 01:00:42;;;;;;;12.27;8.27;;;4.00;99.90;;;;;;6310132;22;20410;-64
2022/09/30 01:03:10;;;;;;;9.60;8.00;;;4.10;99.90;;;;;;6309971;22;20491;-64
2022/09/30 01:05:40;;;;;;;9.50;7.43;;;4.10;99.90;;;;;;6311140;22;20451;-64
2022/09/30 01:08:09;;;;;;;8.63;7.70;;;4.00;99.90;;;;;;6311432;22;20738;-64
2022/09/30 01:10:38;;;;;;;9.13;7.87;;;3.90;99.90;;;;;;6310577;22;20489;-61
2022/09/30 01:13:06;;;;;;;10.80;8.90;;;3.90;99.90;;;;;;6311572;22;20884;-64
2022/09/30 01:15:51;;;;;;;9.50;8.50;;;4.00;99.90;;;;;;6310971;22;20401;-64
2022/09/30 01:18:29;;;;;;;9.27;8.37;;;4.00;99.90;;;;;;6311310;22;20395;-64
2022/09/30 01:21:39;;;;;;;13.00;8.70;;;4.00;99.90;;;;;;6311645;22;20397;-64
2022/09/30 01:24:45;;;;;;;10.47;8.80;;;3.90;99.90;;;;;;6310658;22;20682;-63
2022/09/30 01:27:47;;;;;;;10.63;8.60;;;3.90;99.90;;;;;;6262284;22;20412;-63
2022/09/30 01:30:20;;;;;;;11.80;7.53;;;3.80;99.90;;;;;;6262115;22;20868;-64
2022/09/30 01:33:04;;;;;;;11.20;8.77;;;3.70;99.90;;;;;;6310997;22;20469;-63
2022/09/30 01:35:45;;;;;;;8.67;7.80;;;3.70;99.90;;;;;;6311078;22;20412;-64
2022/09/30 01:38:18;;;;;;;9.10;8.20;;;3.70;99.90;;;;;;6311140;22;20391;-64
2022/09/30 01:40:52;;;;;;;8.20;6.97;;;3.60;99.90;;;;;;6310738;22;20421;-64
2022/09/30 01:43:28;;;;;;;8.80;7.90;;;3.60;99.90;;;;;;6311121;22;20397;-63
2022/09/30 01:46:01;;;;;;;9.80;8.03;;;3.70;99.90;;;;;;6311211;22;20413;-63
2022/09/30 01:48:39;;;;;;;8.33;7.40;;;3.60;99.90;;;;;;6310901;22;20416;-63
2022/09/30 01:51:10;;;;;;;10.43;7.67;;;3.60;99.90;;;;;;6311195;22;20554;-63
2022/09/30 01:53:43;;;;;;;9.10;7.40;;;3.60;99.90;;;;;;6311344;22;20423;-62
2022/09/30 01:56:18;;;;;;;8.47;7.67;;;3.60;99.90;;;;;;6310900;22;20756;-62
2022/09/30 01:58:54;;;;;;;8.60;7.70;;;3.50;99.90;;;;;;6310138;22;20690;-63
2022/09/30 02:01:30;;;;;;;10.60;7.80;;;3.50;99.90;;;;;;6310081;22;20878;-63
2022/09/30 02:04:05;;;;;;;9.97;8.97;;;3.50;99.90;;;;;;6310736;22;20755;-63
2022/09/30 02:06:39;;;;;;;9.00;7.90;;;3.50;99.90;;;;;;6310785;22;20498;-63
2022/09/30 02:09:12;;;;;;;9.73;8.57;;;3.50;99.90;;;;;;6310220;22;20812;-62
2022/09/30 02:11:41;;;;;;;9.77;7.77;;;3.40;99.90;;;;;;6311156;22;20483;-60
2022/09/30 02:14:13;;;;;;;8.43;7.60;;;3.40;99.90;;;;;;6310231;22;20416;-62
2022/09/30 02:16:49;;;;;;;7.87;6.73;;;3.40;99.90;;;;;;6310960;22;20714;-62
2022/09/30 02:19:23;;;;;;;9.07;7.57;;;3.50;99.90;;;;;;6310363;22;20464;-62
2022/09/30 02:21:58;;;;;;;12.27;8.20;;;3.40;99.90;;;;;;6310710;22;20746;-60
2022/09/30 02:24:30;;;;;;;9.00;7.77;;;3.50;99.90;;;;;;6310128;22;20411;-62
2022/09/30 02:27:01;;;;;;;8.33;7.53;;;3.40;99.90;;;;;;6310515;22;20724;-61
2022/09/30 02:29:35;;;;;;;10.07;8.10;;;3.40;99.90;;;;;;6310213;22;20419;-62
2022/09/30 02:32:06;;;;;;;8.77;7.87;;;3.40;99.90;;;;;;6310614;22;20688;-62
2022/09/30 02:34:40;;;;;;;8.00;6.87;;;3.30;99.90;;;;;;6310089;22;20498;-62
2022/09/30 02:37:13;;;;;;;10.10;9.07;;;3.20;99.90;;;;;;6310603;22;20908;-61
2022/09/30 02:39:43;;;;;;;9.97;8.07;;;3.30;99.90;;;;;;6310334;22;20421;-62
2022/09/30 02:42:15;;;;;;;10.17;8.60;;;3.30;99.90;;;;;;6310017;22;20416;-62
2022/09/30 02:44:42;;;;;;;9.90;8.90;;;3.30;99.90;;;;;;6309937;22;20514;-62
2022/09/30 02:47:16;;;;;;;12.03;9.50;;;3.30;99.90;;;;;;6309662;22;20412;-61
2022/09/30 02:49:50;;;;;;;9.13;8.23;;;3.30;99.90;;;;;;6309331;22;20460;-61
2022/09/30 02:52:26;;;;;;;10.07;7.60;;;3.30;99.90;;;;;;6310527;22;20870;-62
2022/09/30 02:55:09;;;;;;;9.57;8.60;;;3.30;99.90;;;;;;6309127;22;20401;-62
2022/09/30 02:57:42;;;;;;;10.80;8.83;;;3.20;99.90;;;;;;6308638;22;20451;-61
2022/09/30 03:00:12;;;;;;;12.00;9.27;;;3.10;99.90;;;;;;6309201;22;20445;-62
2022/09/30 03:02:40;;;;;;;11.70;8.07;;;3.10;99.90;;;;;;6310032;22;20416;-62
2022/09/30 03:05:09;;;;;;;9.10;8.10;;;3.10;99.90;;;;;;6309860;22;20864;-61
2022/09/30 03:07:37;;;;;;;10.80;8.63;;;3.10;99.90;;;;;;6310400;22;20478;-61
2022/09/30 03:10:13;;;;;;;9.33;7.70;;;3.10;99.90;;;;;;6310301;22;20395;-61
2022/09/30 03:12:55;;;;;;;9.23;8.27;;;3.00;99.90;;;;;;6310069;22;20392;-59
2022/09/30 03:15:38;;;;;;;9.00;8.10;;;3.00;99.90;;;;;;6309882;22;20422;-62
2022/09/30 03:18:22;;;;;;;9.43;8.53;;;3.10;99.90;;;;;;6310126;22;20443;-60
2022/09/30 03:21:08;;;;;;;10.43;8.17;;;3.00;99.90;;;;;;6308248;22;20439;-60
2022/09/30 03:24:26;;;;;;;10.07;8.80;;;3.00;99.90;;;;;;6310010;22;20868;-62
2022/09/30 03:27:07;;;;;;;10.17;9.13;;;2.90;99.90;;;;;;6189839;22;20870;-62
2022/09/30 03:29:44;;;;;;;11.37;9.40;;;2.90;99.90;;;;;;6296358;22;20885;-61
2022/09/30 03:32:23;;;;;;;10.57;8.90;;;2.90;99.90;;;;;;6308486;22;20501;-62
2022/09/30 03:35:04;;;;;;;10.63;8.80;;;2.90;99.90;;;;;;6306790;22;20523;-63
2022/09/30 03:37:44;;;;;;;9.73;7.50;;;2.90;99.90;;;;;;6307880;22;20440;-63
2022/09/30 03:40:21;;;;;;;9.63;7.63;;;2.90;99.90;;;;;;6307310;22;20542;-63
2022/09/30 03:42:56;;;;;;;9.00;7.70;;;3.00;99.90;;;;;;6308380;22;20864;-62
2022/09/30 03:45:31;;;;;;;8.67;7.17;;;3.00;99.90;;;;;;6308257;22;20422;-63
2022/09/30 03:48:03;;;;;;;10.67;7.77;;;3.10;99.90;;;;;;6307769;22;20832;-63
2022/09/30 03:50:32;;;;;;;10.20;7.80;;;3.10;99.90;;;;;;6309675;22;20845;-63
2022/09/30 03:53:01;;;;;;;10.77;7.60;;;3.10;99.90;;;;;;6309777;22;20854;-62
2022/09/30 03:55:30;;;;;;;9.40;7.97;;;3.00;99.90;;;;;;6309946;22;20422;-63
2022/09/30 03:57:57;;;;;;;9.10;7.87;;;2.90;99.90;;;;;;6309696;22;20444;-63
2022/09/30 04:00:25;;;;;;;10.00;8.17;;;2.90;99.90;;;;;;6308229;22;20783;-63
2022/09/30 04:02:52;;;;;;;7.80;6.93;;;2.90;99.90;;;;;;6308872;22;20731;-63
2022/09/30 04:05:24;;;;;;;9.70;7.40;;;2.90;99.90;;;;;;6308762;22;20420;-63
2022/09/30 04:07:54;;;;;;;10.47;7.73;;;3.00;99.90;;;;;;6309063;22;20728;-63
2022/09/30 04:10:23;;;;;;;8.87;8.07;;;3.00;99.90;;;;;;6308326;22;20873;-63
2022/09/30 04:12:53;;;;;;;10.10;8.67;;;3.00;99.90;;;;;;6308611;22;20499;-63
2022/09/30 04:15:20;;;;;;;9.63;8.00;;;3.00;99.90;;;;;;6309313;22;20424;-63
2022/09/30 04:17:48;;;;;;;12.23;8.60;;;3.00;99.90;;;;;;6307252;22;20447;-63
2022/09/30 04:20:15;;;;;;;9.00;8.10;;;2.90;99.90;;;;;;6308608;22;20515;-63
2022/09/30 04:22:42;;;;;;;9.47;8.40;;;2.90;99.90;;;;;;6308887;22;20428;-63
2022/09/30 04:25:10;;;;;;;9.60;8.50;;;2.90;99.90;;;;;;6308501;22;20444;-63
2022/09/30 04:27:38;;;;;;;10.07;9.07;;;2.90;99.90;;;;;;6309222;22;20390;-63
2022/09/30 04:30:07;;;;;;;9.07;8.17;;;2.90;99.90;;;;;;6307393;22;20426;-63
2022/09/30 04:32:40;;;;;;;10.60;9.40;;;2.80;99.90;;;;;;6307141;22;20398;-63
2022/09/30 04:35:08;;;;;;;9.03;8.13;;;2.80;99.90;;;;;;6308436;22;20523;-63
2022/09/30 04:37:35;;;;;;;10.17;7.43;;;2.80;99.90;;;;;;6308309;22;20458;-63
2022/09/30 04:40:02;;;;;;;8.97;7.90;;;2.80;99.90;;;;;;6308949;22;20770;-63
2022/09/30 04:42:30;;;;;;;10.50;9.40;;;2.90;99.90;;;;;;6308255;22;20394;-63
2022/09/30 04:44:58;;;;;;;9.93;8.93;;;2.80;99.90;;;;;;6309012;22;20470;-63
2022/09/30 04:47:26;;;;;;;9.90;8.40;;;2.80;99.90;;;;;;6308604;22;20502;-62
2022/09/30 04:49:53;;;;;;;10.53;8.50;;;2.80;99.90;;;;;;6307934;22;20424;-63
2022/09/30 04:52:20;;;;;;;10.77;8.80;;;2.80;99.90;;;;;;6308371;22;20427;-63
2022/09/30 04:54:47;;;;;;;12.20;9.20;;;2.90;99.90;;;;;;6308428;22;20423;-63
2022/09/30 04:57:16;;;;;;;9.07;8.17;;;2.80;99.90;;;;;;6309240;22;20447;-63
2022/09/30 04:59:46;;;;;;;8.87;7.80;;;2.70;99.90;;;;;;6308216;22;20518;-63
2022/09/30 05:02:18;;;;;;;9.07;7.63;;;2.70;99.90;;;;;;6307876;22;20485;-63
2022/09/30 05:04:45;;;;;;;9.87;8.60;;;2.80;99.90;;;;;;6308667;22;20722;-63
2022/09/30 05:07:13;;;;;;;9.00;8.03;;;2.80;99.90;;;;;;6309062;22;20444;-63
2022/09/30 05:09:40;;;;;;;9.17;8.03;;;2.80;99.90;;;;;;6307481;22;20898;-63
2022/09/30 05:12:07;;;;;;;10.50;8.27;;;2.70;99.90;;;;;;6307149;22;20733;-63
2022/09/30 05:14:34;;;;;;;9.87;8.63;;;2.70;99.90;;;;;;6306222;22;20887;-63
2022/09/30 05:17:02;;;;;;;8.73;7.83;;;2.70;99.90;;;;;;6306590;22;20436;-63
2022/09/30 05:19:30;;;;;;;8.83;7.93;;;2.70;99.90;;;;;;6307176;22;20390;-63
2022/09/30 05:21:57;;;;;;;22.13;18.70;;;2.70;99.90;;;;;;6307003;22;20838;-63
2022/09/30 05:24:25;;;;;;;20.30;16.83;;;2.70;99.90;;;;;;6305935;22;20450;-63
2022/09/30 05:26:52;;;;;;;13.80;11.50;;;2.80;99.90;;;;;;6307128;22;20429;-63
2022/09/30 05:29:22;;;;;;;16.57;13.50;;;2.70;99.90;;;;;;6306910;22;20423;-63
2022/09/30 05:31:56;;;;;;;15.13;13.53;;;2.60;99.90;;;;;;6307670;22;20439;-63
2022/09/30 05:34:27;;;;;;;15.80;13.13;;;2.60;99.90;;;;;;6304462;22;20465;-63
2022/09/30 05:36:55;;;;;;;16.87;13.30;;;2.70;99.90;;;;;;6305550;22;21004;-63
2022/09/30 05:39:22;;;;;;;12.00;10.27;;;2.70;99.90;;;;;;6304941;22;20929;-63
2022/09/30 05:41:52;;;;;;;10.97;8.73;;;2.60;99.90;;;;;;6303943;22;20670;-63
2022/09/30 05:44:20;;;;;;;9.90;8.90;;;2.60;99.90;;;;;;6306366;22;20492;-63
2022/09/30 05:46:48;;;;;;;12.57;9.60;;;2.60;99.90;;;;;;6307509;22;20887;-63
2022/09/30 05:49:15;;;;;;;12.17;8.60;;;2.60;99.90;;;;;;6307054;22;20397;-63
2022/09/30 05:51:43;;;;;;;11.23;8.90;;;2.70;99.90;;;;;;6306980;22;20431;-63
2022/09/30 05:54:12;;;;;;;10.40;9.40;;;2.70;99.90;;;;;;6307110;22;20452;-63
2022/09/30 05:56:40;;;;;;;10.70;9.70;;;2.80;99.90;;;;;;6308351;22;20846;-63
2022/09/30 05:59:07;;;;;;;12.07;10.77;;;2.80;99.90;;;;;;6308590;22;20426;-63
2022/09/30 06:01:34;;;;;;;11.80;9.93;;;2.90;99.90;;;;;;6309139;22;20846;-63
2022/09/30 06:04:02;;;;;;;10.97;9.20;;;2.80;99.90;;;;;;6308849;22;20394;-63
2022/09/30 06:06:30;;;;;;;10.30;8.77;;;2.90;99.90;;;;;;6308793;22;20420;-63
2022/09/30 06:08:58;;;;;;;10.07;9.03;;;2.90;99.90;;;;;;6310077;22;20420;-63
2022/09/30 06:11:30;;;;;;;10.73;8.73;;;3.10;99.90;;;;;;6309480;22;20423;-63
2022/09/30 06:13:57;;;;;;;12.30;9.97;;;3.10;99.90;;;;;;6308337;22;20496;-63
2022/09/30 06:16:27;;;;;;;11.03;9.80;;;3.10;99.90;;;;;;6309225;22;20460;-63
2022/09/30 06:18:54;;;;;;;10.70;9.03;;;3.20;99.90;;;;;;6309733;22;20448;-63
2022/09/30 06:21:22;;;;;;;11.30;9.37;;;3.30;99.90;;;;;;6310152;22;20416;-64
2022/09/30 06:23:49;;;;;;;14.00;10.53;;;3.30;99.90;;;;;;6308694;22;20420;-63
2022/09/30 06:26:19;;;;;;;11.57;7.47;;;3.40;99.90;;;;;;6309472;22;20523;-63
2022/09/30 06:28:49;;;;;;;10.53;9.43;;;3.60;99.90;;;;;;6310219;22;20490;-64
2022/09/30 06:31:18;;;;;;;12.20;10.20;;;3.80;99.90;;;;;;6310008;22;20416;-65
2022/09/30 06:33:46;;;;;;;10.63;9.30;;;3.70;99.90;;;;;;6309831;22;20419;-66
2022/09/30 06:36:14;;;;;;;13.90;9.90;;;3.70;99.90;;;;;;6309739;22;20420;-67
2022/09/30 06:38:41;;;;;;;11.10;9.57;;;3.80;99.90;;;;;;6309516;22;20542;-66
2022/09/30 06:41:09;;;;;;;10.00;9.00;;;3.90;99.90;;;;;;6310129;22;20421;-65
2022/09/30 06:43:36;;;;;;;11.10;9.97;;;4.10;99.90;;;;;;6310217;22;20519;-64
2022/09/30 06:46:08;;;;;;;12.27;11.03;;;4.40;99.90;;;;;;6310610;22;20440;-63
2022/09/30 06:48:35;;;;;;;11.83;10.63;;;4.70;99.90;;;;;;6309939;22;20503;-63
2022/09/30 06:51:03;;;;;;;12.00;10.10;;;4.90;99.90;;;;;;6310221;22;20481;-63
2022/09/30 06:53:33;;;;;;;12.80;9.70;;;5.20;99.90;;;;;;6310214;22;20716;-64
2022/09/30 06:56:00;;;;;;;12.70;10.10;;;5.50;99.90;;;;;;6310148;22;20449;-64
2022/09/30 06:58:30;;;;;;;10.63;9.57;;;5.70;99.90;;;;;;6309404;22;20435;-65
2022/09/30 07:00:58;;;;;;;30.30;12.27;;;5.80;99.90;;;;;;6308367;22;20486;-65
2022/09/30 07:03:29;;;;;;;17.70;11.17;;;6.10;99.90;;;;;;6308400;22;20391;-64
2022/09/30 07:06:04;;;;;;;13.23;10.90;;;6.40;99.90;;;;;;6308676;22;20865;-65
2022/09/30 07:08:34;;;;;;;15.47;10.50;;;6.60;99.90;;;;;;6307888;22;20386;-65
2022/09/30 07:11:03;;;;;;;16.33;11.90;;;6.90;99.90;;;;;;6308785;22;20416;-65
2022/09/30 07:13:33;;;;;;;14.90;11.83;;;7.20;99.90;;;;;;6308663;22;20391;-65
2022/09/30 07:16:07;;;;;;;16.13;11.50;;;7.40;99.90;;;;;;6307908;22;21195;-66
2022/09/30 07:18:35;;;;;;;12.63;10.20;;;7.70;99.90;;;;;;6309377;22;20444;-66
2022/09/30 07:21:03;;;;;;;11.20;9.77;;;7.70;1.00;;;;;;6309029;22;20847;-64
2022/09/30 07:23:30;;;;;;;13.17;9.33;;;7.80;99.90;;;;;;6309490;22;20852;-64
2022/09/30 07:26:01;;;;;;;13.27;10.50;;;7.70;1.00;;;;;;6307700;22;20415;-64
2022/09/30 07:28:32;;;;;;;16.53;10.27;;;8.20;99.90;;;;;;6308290;22;20416;-64
2022/09/30 07:31:07;;;;;;;12.40;10.27;;;9.00;99.90;;;;;;6306984;22;20532;-65
2022/09/30 07:33:37;;;;;;;13.80;9.70;;;8.90;1.00;;;;;;6309683;22;20422;-64
2022/09/30 07:36:09;;;;;;;8.93;7.03;;;8.70;33.10;;;;;;6307407;22;20416;-64
2022/09/30 07:38:39;;;;;;;10.00;8.47;;;8.80;69.50;;;;;;6308581;22;20448;-64
2022/09/30 07:41:08;;;;;;;9.50;7.10;;;9.30;99.90;;;;;;6307824;22;20427;-63
2022/09/30 07:43:38;;;;;;;8.47;7.67;;;9.50;66.70;;;;;;6309129;22;20442;-62
2022/09/30 07:46:07;;;;;;;8.13;7.33;;;9.60;1.00;;;;;;6309011;22;20425;-62
2022/09/30 07:48:42;;;;;;;7.30;6.70;;;9.70;1.00;;;;;;6309294;22;20422;-62
2022/09/30 07:51:10;;;;;;;8.83;7.93;;;9.90;1.00;;;;;;6307950;22;20420;-62
2022/09/30 07:53:37;;;;;;;8.63;7.83;;;9.90;1.00;;;;;;6308842;22;20416;-62
2022/09/30 07:56:05;;;;;;;7.93;7.13;;;10.20;1.00;;;;;;6309428;22;20421;-62
2022/09/30 07:58:33;;;;;;;8.13;7.37;;;10.60;1.00;;;;;;6309208;22;20448;-61
2022/09/30 08:01:00;;;;;;;8.07;7.27;;;11.00;1.00;;;;;;6308850;22;20452;-61
2022/09/30 08:03:27;;;;;;;8.97;8.07;;;11.30;1.00;;;;;;6309137;22;20416;-61
2022/09/30 08:05:56;;;;;;;7.80;7.00;;;11.40;1.00;;;;;;6309744;22;20444;-62
2022/09/30 08:08:25;;;;;;;10.13;7.80;;;11.60;1.00;;;;;;6308339;22;20456;-62
2022/09/30 08:10:52;;;;;;;9.13;8.23;;;11.80;99.90;;;;;;6308468;22;20467;-62
2022/09/30 08:13:19;;;;;;;7.70;7.00;;;12.10;99.90;;;;;;6307673;22;20456;-62
2022/09/30 08:15:47;;;;;;;9.27;8.30;;;12.20;99.90;;;;;;6308163;22;20431;-61
2022/09/30 08:18:17;;;;;;;10.23;9.30;;;12.40;99.90;;;;;;6308681;22;20904;-61
2022/09/30 08:20:47;;;;;;;9.70;8.70;;;12.40;99.90;;;;;;6307152;22;20455;-61
2022/09/30 08:23:16;;;;;;;10.60;9.50;;;12.90;1.00;;;;;;6308118;22;20418;-59
2022/09/30 08:25:43;;;;;;;10.07;9.07;;;13.00;99.90;;;;;;6309092;22;20436;-61
2022/09/30 08:28:10;;;;;;;10.20;9.20;;;12.90;99.90;;;;;;6308670;22;20416;-60
2022/09/30 08:30:37;;;;;;;10.23;8.63;;;13.30;99.90;;;;;;6306997;22;20395;-60
2022/09/30 08:33:05;;;;;;;10.30;9.40;;;13.40;99.90;;;;;;6307194;22;20415;-60
2022/09/30 08:35:35;;;;;;;9.30;8.37;;;13.50;99.90;;;;;;6308824;22;20859;-60
2022/09/30 08:38:03;;;;;;;8.70;7.90;;;13.70;99.90;;;;;;6307482;22;20489;-60
2022/09/30 08:40:35;;;;;;;12.83;9.07;;;13.50;99.90;;;;;;6307059;22;20473;-60
2022/09/30 08:43:10;;;;;;;12.03;8.90;;;14.00;99.90;;;;;;6307327;22;20424;-60
2022/09/30 08:45:47;;;;;;;9.50;8.30;;;14.40;99.90;;;;;;6307732;22;20710;-60
2022/09/30 08:48:35;;;;;;;9.50;8.50;;;15.00;99.90;;;;;;6307068;22;20412;-60
2022/09/30 08:51:19;;;;;;;8.80;8.00;;;15.10;99.90;;;;;;6308760;22;20416;-60
2022/09/30 08:53:47;;;;;;;8.43;7.50;;;14.70;99.90;;;;;;6308840;22;20416;-61
2022/09/30 08:56:24;;;;;;;8.93;8.00;;;14.90;99.90;;;;;;6308620;22;20717;-61
2022/09/30 08:58:59;;;;;;;8.83;7.60;;;15.20;99.90;;;;;;6308042;22;20418;-61
2022/09/30 09:01:32;;;;;;;8.23;7.43;;;15.30;99.90;;;;;;6309293;22;20422;-61
2022/09/30 09:04:00;;;;;;;7.80;7.10;;;15.60;99.90;;;;;;6308348;22;20416;-61
2022/09/30 09:06:33;;;;;;;9.33;8.27;;;15.90;99.90;;;;;;6308768;22;20879;-61
2022/09/30 09:09:18;;;;;;;8.30;7.20;;;16.20;99.90;;;;;;6308456;22;20713;-61
2022/09/30 09:12:02;;;;;;;7.83;7.07;;;16.40;99.90;;;;;;6309131;22;20463;-61
2022/09/30 09:14:45;;;;;;;8.80;7.90;;;16.70;99.90;;;;;;6308707;22;20469;-61
2022/09/30 09:17:26;;;;;;;8.10;6.20;;;16.50;99.90;;;;;;6308846;22;20412;-61
2022/09/30 09:20:03;;;;;;;8.67;6.20;;;16.70;99.90;;;;;;6309569;22;20450;-62
2022/09/30 09:22:35;;;;;;;8.90;6.50;;;16.80;99.90;;;;;;6310941;22;20869;-62
2022/09/30 09:25:05;;;;;;;9.63;7.83;;;17.10;99.90;;;;;;6310491;22;20454;-61
2022/09/30 09:27:45;;;;;;;8.80;6.90;;;17.10;99.90;;;;;;6310310;22;20415;-61
2022/09/30 09:30:16;;;;;;;9.00;7.37;;;17.40;99.90;;;;;;6310103;22;20447;-61
2022/09/30 09:32:50;;;;;;;7.87;7.07;;;17.60;99.90;;;;;;6310640;22;20420;-61
2022/09/30 09:35:28;;;;;;;8.67;7.40;;;17.90;99.90;;;;;;6310602;22;20420;-61
2022/09/30 09:40:57;;;;;;;7.90;6.80;;;17.90;99.90;;;;;;6309465;22;20421;-62
2022/09/30 09:43:39;;;;;;;6.47;5.87;;;18.10;99.90;;;;;;6309719;22;20721;-62
2022/09/30 09:46:19;;;;;;;10.70;6.50;;;17.80;99.90;;;;;;6309162;22;20415;-64
2022/09/30 09:48:46;;;;;;;7.33;5.73;;;17.70;99.90;;;;;;6308945;22;20412;-62
2022/09/30 09:51:26;;;;;;;7.93;6.40;;;17.10;99.90;;;;;;6309205;22;20690;-62
2022/09/30 09:53:58;;;;;;;7.10;6.40;;;17.40;99.90;;;;;;6309788;22;20897;-62
2022/09/30 09:56:32;;;;;;;6.80;6.20;;;17.60;99.90;;;;;;6309560;22;20477;-62
2022/09/30 09:59:18;;;;;;;7.53;6.83;;;17.70;99.90;;;;;;6308895;22;20443;-63
2022/09/30 10:01:49;;;;;;;7.03;6.43;;;17.90;99.90;;;;;;6308393;22;20800;-62
2022/09/30 10:04:23;;;;;;;8.10;6.63;;;18.20;99.90;;;;;;6308995;22;20420;-64
2022/09/30 10:06:52;;;;;;;7.40;6.50;;;18.10;99.90;;;;;;6309183;22;20546;-62
2022/09/30 10:09:33;;;;;;;7.47;6.63;;;18.10;99.90;;;;;;6307846;22;20860;-64
2022/09/30 10:12:35;;;;;;;7.93;6.50;;;18.30;99.90;;;;;;6307324;22;20866;-62
2022/09/30 10:15:20;;;;;;;6.70;6.10;;;18.30;99.90;;;;;;6294865;22;20430;-61
2022/09/30 10:17:59;;;;;;;7.40;6.70;;;18.30;99.90;;;;;;6303523;22;20853;-62
2022/09/30 10:20:31;;;;;;;9.87;7.67;;;18.40;99.90;;;;;;6303756;22;20974;-62
2022/09/30 10:23:08;;;;;;;9.87;6.87;;;18.60;99.90;;;;;;6305923;22;20416;-61
2022/09/30 10:25:35;;;;;;;7.27;6.57;;;18.30;99.90;;;;;;6307510;22;20440;-62
2022/09/30 10:28:22;;;;;;;7.30;6.30;;;18.30;99.90;;;;;;6308810;22;20424;-63
2022/09/30 10:30:56;;;;;;;9.10;6.97;;;17.80;99.90;;;;;;6306061;22;20415;-62
2022/09/30 10:33:29;;;;;;;7.97;7.27;;;17.80;99.90;;;;;;6306060;22;20458;-62
2022/09/30 10:36:04;;;;;;;8.93;7.03;;;18.20;99.90;;;;;;6309129;22;20459;-63
2022/09/30 10:38:33;;;;;;;6.70;6.10;;;18.40;99.90;;;;;;6309880;22;20760;-63
2022/09/30 10:41:04;;;;;;;6.73;6.00;;;18.50;99.90;;;;;;6308678;22;20428;-62
2022/09/30 10:43:37;;;;;;;7.73;6.20;;;18.60;99.90;;;;;;6309752;22;20422;-63
2022/09/30 10:46:09;;;;;;;6.97;6.37;;;18.80;99.90;;;;;;6309533;22;20411;-62
2022/09/30 10:48:38;;;;;;;6.30;5.80;;;18.70;99.90;;;;;;6309853;22;20387;-63
2022/09/30 10:51:18;;;;;;;7.37;6.60;;;18.60;99.90;;;;;;6310163;22;20451;-63
2022/09/30 10:53:45;;;;;;;7.80;7.00;;;18.30;99.90;;;;;;6309922;22;20395;-63
2022/09/30 10:56:12;;;;;;;6.97;6.37;;;18.40;99.90;;;;;;6309675;22;20412;-62
2022/09/30 10:58:48;;;;;;;6.53;5.90;;;18.70;99.90;;;;;;6309403;22;20419;-63
2022/09/30 11:01:23;;;;;;;6.60;5.80;;;18.80;99.90;;;;;;6309642;22;20390;-64
2022/09/30 11:04:01;;;;;;;6.30;5.80;;;19.10;99.90;;;;;;6308646;22;20394;-64
2022/09/30 11:06:32;;;;;;;6.37;5.77;;;19.40;99.90;;;;;;6309119;22;20481;-63
2022/09/30 11:09:04;;;;;;;7.50;6.20;;;19.70;99.90;;;;;;6309785;22;20444;-64
2022/09/30 11:11:38;;;;;;;7.10;5.93;;;19.10;99.90;;;;;;6310702;22;20800;-63
2022/09/30 11:14:19;;;;;;;6.77;6.10;;;19.20;99.90;;;;;;6308903;22;20428;-63
2022/09/30 11:16:57;;;;;;;6.60;6.00;;;19.30;99.90;;;;;;6309734;22;20390;-63
2022/09/30 11:19:31;;;;;;;6.87;6.27;;;19.50;99.90;;;;;;6310244;22;20747;-63
2022/09/30 11:22:06;;;;;;;6.07;5.47;;;19.60;99.90;;;;;;6310364;22;20852;-63
2022/09/30 11:24:41;;;;;;;6.03;5.47;;;19.40;99.90;;;;;;6309013;22;20457;-63
2022/09/30 11:27:16;;;;;;;6.83;5.70;;;19.50;99.90;;;;;;6310352;22;20416;-63
2022/09/30 11:29:55;;;;;;;6.00;5.40;;;19.80;99.90;;;;;;6310156;22;20393;-63
2022/09/30 11:32:44;;;;;;;7.37;5.87;;;19.80;99.90;;;;;;6310114;22;20477;-64
2022/09/30 11:35:28;;;;;;;9.57;4.90;;;19.50;99.90;;;;;;6308477;22;20870;-63
2022/09/30 11:38:09;;;;;;;5.10;4.50;;;19.70;99.90;;;;;;6309930;22;20464;-64
2022/09/30 11:40:45;;;;;;;7.10;5.83;;;20.10;99.90;;;;;;6308172;22;20454;-63
2022/09/30 11:43:35;;;;;;;5.50;5.00;;;20.10;99.90;;;;;;6308589;22;20419;-63
2022/09/30 11:46:21;;;;;;;5.57;4.93;;;20.30;99.90;;;;;;6308769;22;20383;-63
2022/09/30 11:49:13;;;;;;;5.17;4.67;;;20.60;99.90;;;;;;6308744;22;20422;-63
2022/09/30 11:51:48;;;;;;;6.03;5.00;;;20.60;99.90;;;;;;6309189;22;20473;-63
2022/09/30 11:54:29;;;;;;;5.70;5.10;;;20.80;99.90;;;;;;6308728;22;20415;-65
2022/09/30 11:57:09;;;;;;;5.10;4.20;;;20.70;99.90;;;;;;6308061;22;20416;-64
2022/09/30 11:59:42;;;;;;;7.60;4.40;;;20.60;99.90;;;;;;6308115;22;20991;-64
2022/09/30 12:02:26;;;;;;;6.47;4.40;;;20.70;99.90;;;;;;6309840;22;20444;-64
2022/09/30 12:05:01;;;;;;;4.40;4.00;;;20.40;99.90;;;;;;6309861;22;20501;-65
2022/09/30 12:07:39;;;;;;;4.97;4.10;;;20.30;99.90;;;;;;6310283;22;20477;-64
2022/09/30 12:10:21;;;;;;;4.20;3.80;;;19.90;99.90;;;;;;6308858;22;20455;-64
2022/09/30 12:12:51;;;;;;;5.03;4.07;;;20.00;99.90;;;;;;6308062;22;20699;-64
2022/09/30 12:15:23;;;;;;;5.20;4.00;;;20.20;99.90;;;;;;6308463;22;20481;-64
2022/09/30 12:17:54;;;;;;;5.13;4.63;;;20.20;99.90;;;;;;6308581;22;20819;-64
2022/09/30 12:20:28;;;;;;;5.33;4.80;;;20.30;99.90;;;;;;6307533;22;20448;-64
2022/09/30 12:23:00;;;;;;;5.93;4.50;;;20.60;99.90;;;;;;6307767;22;20445;-64
2022/09/30 12:25:35;;;;;;;4.60;4.20;;;20.10;99.90;;;;;;6307632;22;20493;-63
2022/09/30 12:31:00;;;;;;;4.80;4.40;;;19.90;99.90;;;;;;6306840;22;20399;-63
2022/09/30 12:33:42;;;;;;;4.20;3.90;;;19.70;99.90;;;;;;6308013;22;20386;-64
2022/09/30 12:36:39;;;;;;;4.00;3.40;;;20.00;99.90;;;;;;6307848;22;20416;-64
2022/09/30 12:39:50;;;;;;;5.10;4.60;;;20.00;99.90;;;;;;6307968;22;20760;-63
2022/09/30 12:42:47;;;;;;;4.83;4.43;;;19.90;99.90;;;;;;6307922;22;20728;-63
2022/09/30 12:45:42;;;;;;;4.70;3.73;;;19.90;99.90;;;;;;6307452;22;20401;-63
2022/09/30 12:48:13;;;;;;;4.90;4.13;;;20.50;99.90;;;;;;6272346;22;20424;-63
2022/09/30 12:50:45;;;;;;;3.87;3.57;;;20.70;99.90;;;;;;6306805;22;20387;-63
2022/09/30 12:53:21;;;;;;;4.60;4.20;;;20.70;99.90;;;;;;6305958;22;20742;-63
2022/09/30 12:55:51;;;;;;;4.43;3.60;;;20.50;99.90;;;;;;6309016;22;20394;-63
2022/09/30 12:58:25;;;;;;;6.27;3.90;;;20.60;99.90;;;;;;6307918;22;20416;-63
2022/09/30 13:01:06;;;;;;;5.10;4.70;;;20.90;99.90;;;;;;6309496;22;20430;-64
2022/09/30 13:03:49;;;;;;;4.60;3.90;;;20.80;99.90;;;;;;6306139;22;20420;-63
2022/09/30 13:06:18;;;;;;;4.63;4.20;;;20.90;99.90;;;;;;6301973;22;20420;-63
2022/09/30 13:09:17;;;;;;;5.10;4.67;;;20.80;99.90;;;;;;6304488;22;20614;-62
2022/09/30 13:11:45;;;;;;;4.27;3.87;;;20.30;99.90;;;;;;6304991;22;20387;-63
2022/09/30 13:14:31;;;;;;;6.17;5.03;;;20.40;99.90;;;;;;6306693;22;20652;-63
2022/09/30 13:17:25;;;;;;;4.50;4.10;;;19.80;99.90;;;;;;6307352;22;20386;-63
2022/09/30 13:19:55;;;;;;;5.93;4.47;;;20.00;99.90;;;;;;6293654;22;20517;-63
2022/09/30 13:23:19;;;;;;;6.70;4.00;;;20.20;99.90;;;;;;6307274;22;20420;-63
2022/09/30 13:25:55;;;;;;;4.47;4.07;;;20.70;99.90;;;;;;6307813;22;20711;-63
2022/09/30 13:28:30;;;;;;;6.33;4.50;;;20.50;99.90;;;;;;6308474;22;20409;-63